Time;durP1;ratioP1;P1;durP2;ratioP2;P2;SDS_P1;SDS_P2;PMS_P1;PMS_P2;Temp;Humidity;BMP_temperature;BMP_pressure;BME280_temperature;BME280_humidity;BME280_pressure;Samples;Min_cycle;Max_cycle;Signal;HPM_P1;HPM_P2
2024/02/20 00:01:39;;;;;;;7.55;4.55;;;11.10;99.90;;;;;;5048095;28;20023;-67
2024/02/20 00:04:08;;;;;;;8.43;4.47;;;11.10;99.90;;;;;;5044455;28;20033;-69
2024/02/20 00:06:35;;;;;;;11.82;5.97;;;11.10;99.90;;;;;;5039841;28;20029;-66
2024/02/20 00:09:02;;;;;;;7.38;4.38;;;11.10;99.90;;;;;;5049232;28;20028;-67
2024/02/20 00:11:28;;;;;;;10.77;4.40;;;11.10;99.90;;;;;;5047304;28;20775;-66
2024/02/20 00:13:55;;;;;;;6.78;4.43;;;11.10;99.90;;;;;;5048264;28;20511;-66
2024/02/20 00:16:24;;;;;;;10.75;4.15;;;11.00;99.90;;;;;;5044666;28;20488;-67
2024/02/20 00:18:50;;;;;;;7.60;4.20;;;11.10;99.90;;;;;;5047480;28;20028;-67
2024/02/20 00:21:16;;;;;;;7.97;3.90;;;11.10;99.90;;;;;;5052332;28;20036;-67
2024/02/20 00:23:43;;;;;;;8.20;4.30;;;11.00;99.90;;;;;;5049781;28;20033;-67
2024/02/20 00:26:13;;;;;;;9.38;4.78;;;11.00;99.90;;;;;;5049127;28;20021;-67
2024/02/20 00:28:41;;;;;;;9.70;4.38;;;11.00;99.90;;;;;;5044032;28;20175;-67
2024/02/20 00:31:08;;;;;;;6.78;4.30;;;11.00;99.90;;;;;;5048010;28;20056;-67
2024/02/20 00:33:34;;;;;;;11.20;4.80;;;11.00;99.90;;;;;;5048671;28;20385;-68
2024/02/20 00:36:01;;;;;;;14.80;4.82;;;11.00;99.90;;;;;;5049582;28;20110;-67
2024/02/20 00:38:27;;;;;;;8.88;4.50;;;10.80;99.90;;;;;;5045717;28;20033;-67
2024/02/20 00:40:53;;;;;;;10.13;4.70;;;10.80;99.90;;;;;;5032609;28;20606;-67
2024/02/20 00:43:19;;;;;;;11.18;4.80;;;10.80;99.90;;;;;;5046825;28;20036;-68
2024/02/20 00:45:45;;;;;;;7.40;4.47;;;10.80;99.90;;;;;;5042313;28;20041;-67
2024/02/20 00:48:12;;;;;;;8.20;4.57;;;10.80;99.90;;;;;;5047846;28;20077;-67
2024/02/20 00:50:39;;;;;;;6.80;3.97;;;10.80;99.90;;;;;;5047495;28;20140;-67
2024/02/20 00:53:05;;;;;;;6.68;4.32;;;10.80;99.90;;;;;;5052061;28;20051;-67
2024/02/20 00:55:31;;;;;;;6.82;4.07;;;10.80;99.90;;;;;;5047032;28;20029;-67
2024/02/20 00:57:58;;;;;;;6.80;4.03;;;10.80;99.90;;;;;;5048762;28;20062;-67
2024/02/20 01:00:24;;;;;;;7.78;4.13;;;10.70;99.90;;;;;;5044127;28;20033;-67
2024/02/20 01:02:50;;;;;;;7.60;4.28;;;10.70;99.90;;;;;;5044496;28;20033;-67
2024/02/20 01:05:16;;;;;;;7.30;4.30;;;10.70;99.90;;;;;;5044583;28;20027;-68
2024/02/20 01:07:42;;;;;;;6.28;3.95;;;10.70;99.90;;;;;;5051275;28;20104;-67
2024/02/20 01:10:08;;;;;;;6.20;3.75;;;10.70;99.90;;;;;;5045002;28;20037;-67
2024/02/20 01:12:35;;;;;;;7.47;3.88;;;10.70;99.90;;;;;;5050571;28;20902;-67
2024/02/20 01:15:01;;;;;;;10.38;4.22;;;10.70;99.90;;;;;;5042134;28;20641;-67
2024/02/20 01:17:27;;;;;;;8.45;4.18;;;10.70;99.90;;;;;;5043712;28;20511;-67
2024/02/20 01:19:53;;;;;;;7.10;4.10;;;10.70;99.90;;;;;;5044240;28;20028;-67
2024/02/20 01:22:19;;;;;;;6.18;3.38;;;10.80;99.90;;;;;;5045015;28;20594;-67
2024/02/20 01:24:45;;;;;;;7.20;3.88;;;10.70;99.90;;;;;;5042283;28;20033;-67
2024/02/20 01:27:11;;;;;;;5.90;3.67;;;10.70;99.90;;;;;;5044364;28;20029;-67
2024/02/20 01:29:37;;;;;;;5.72;3.63;;;10.70;99.90;;;;;;5049317;28;20033;-67
2024/02/20 01:32:03;;;;;;;7.07;3.53;;;10.70;99.90;;;;;;5048717;28;20032;-67
2024/02/20 01:34:29;;;;;;;6.65;3.33;;;10.70;99.90;;;;;;5047639;28;20036;-67
2024/02/20 01:36:55;;;;;;;6.30;4.07;;;10.60;99.90;;;;;;5041780;28;20044;-67
2024/02/20 01:39:21;;;;;;;11.88;4.07;;;10.60;99.90;;;;;;5043272;28;20676;-67
2024/02/20 01:41:47;;;;;;;6.53;3.85;;;10.50;99.90;;;;;;5046617;28;20402;-67
2024/02/20 01:44:13;;;;;;;5.25;3.20;;;10.50;99.90;;;;;;5047241;28;20484;-68
2024/02/20 01:46:41;;;;;;;6.43;3.38;;;10.50;99.90;;;;;;5047332;28;20029;-67
2024/02/20 01:49:07;;;;;;;4.95;3.10;;;10.50;99.90;;;;;;5045613;28;20069;-67
2024/02/20 01:51:35;;;;;;;4.97;3.25;;;10.50;99.90;;;;;;5044462;28;20033;-67
2024/02/20 01:54:03;;;;;;;5.45;3.80;;;10.50;99.90;;;;;;5049322;28;20078;-67
2024/02/20 01:56:29;;;;;;;5.40;3.22;;;10.60;99.90;;;;;;5047946;28;20064;-67
2024/02/20 01:58:58;;;;;;;9.00;3.60;;;10.60;99.90;;;;;;5042383;28;20095;-67
2024/02/20 02:01:25;;;;;;;5.82;3.10;;;10.60;99.90;;;;;;5042695;28;20035;-67
2024/02/20 02:03:54;;;;;;;6.00;3.35;;;10.60;99.90;;;;;;5041579;28;20873;-67
2024/02/20 02:06:29;;;;;;;8.68;3.55;;;10.60;99.90;;;;;;5045920;28;20072;-67
2024/02/20 02:08:55;;;;;;;3.80;2.70;;;10.60;99.90;;;;;;5045092;28;20024;-67
2024/02/20 02:11:21;;;;;;;5.50;2.97;;;10.60;99.90;;;;;;5040935;28;20122;-67
2024/02/20 02:13:47;;;;;;;2.92;2.28;;;10.60;99.90;;;;;;5044401;28;20029;-67
2024/02/20 02:16:13;;;;;;;5.82;2.40;;;10.50;99.90;;;;;;5046388;28;20556;-67
2024/02/20 02:18:38;;;;;;;6.35;2.72;;;10.50;99.90;;;;;;5044761;28;20599;-67
2024/02/20 02:21:04;;;;;;;3.55;2.22;;;10.40;99.90;;;;;;5045421;28;20041;-67
2024/02/20 02:23:30;;;;;;;5.43;2.20;;;10.40;99.90;;;;;;5041746;28;20025;-66
2024/02/20 02:25:56;;;;;;;3.65;2.33;;;10.30;99.90;;;;;;5046458;28;20515;-67
2024/02/20 02:28:22;;;;;;;3.55;2.30;;;10.30;99.90;;;;;;5049928;28;20563;-67
2024/02/20 02:30:48;;;;;;;6.05;2.17;;;10.20;99.90;;;;;;5045391;28;20036;-67
2024/02/20 02:33:14;;;;;;;4.88;2.28;;;10.10;99.90;;;;;;5041772;28;20771;-67
2024/02/20 02:35:40;;;;;;;4.25;1.98;;;10.00;99.90;;;;;;5041507;28;20060;-67
2024/02/20 02:38:06;;;;;;;4.45;2.08;;;10.00;99.90;;;;;;5043601;28;20029;-67
2024/02/20 02:40:32;;;;;;;5.15;2.08;;;9.90;99.90;;;;;;5043507;28;20033;-67
2024/02/20 02:42:57;;;;;;;3.50;2.13;;;9.80;99.90;;;;;;5044470;28;20085;-67
2024/02/20 02:45:23;;;;;;;2.97;1.75;;;9.80;99.90;;;;;;5042391;28;20041;-67
2024/02/20 02:47:51;;;;;;;3.50;1.88;;;9.80;99.90;;;;;;5042421;28;20074;-67
2024/02/20 02:50:17;;;;;;;6.28;2.70;;;9.80;99.90;;;;;;5043373;28;20040;-67
2024/02/20 02:52:43;;;;;;;4.95;2.60;;;9.80;99.90;;;;;;5047209;28;20083;-67
2024/02/20 02:55:11;;;;;;;5.00;3.28;;;9.90;99.90;;;;;;5046540;28;20036;-67
2024/02/20 02:57:36;;;;;;;4.57;2.03;;;9.90;99.90;;;;;;5041963;28;20044;-67
2024/02/20 03:00:03;;;;;;;5.38;2.40;;;9.90;99.90;;;;;;5042757;28;20040;-67
2024/02/20 03:02:30;;;;;;;7.00;3.20;;;9.90;99.90;;;;;;5041111;28;20036;-67
2024/02/20 03:04:57;;;;;;;4.75;2.03;;;10.00;99.90;;;;;;5042799;28;20067;-67
2024/02/20 03:07:23;;;;;;;3.38;2.20;;;10.10;99.90;;;;;;5044034;28;20040;-67
2024/02/20 03:09:49;;;;;;;6.30;2.67;;;10.10;99.90;;;;;;5041051;28;20142;-67
2024/02/20 03:12:15;;;;;;;6.45;2.03;;;10.20;99.90;;;;;;5043238;28;20044;-67
2024/02/20 03:14:42;;;;;;;5.95;2.13;;;10.20;99.90;;;;;;5047447;28;20078;-67
2024/02/20 03:17:08;;;;;;;6.18;2.20;;;10.20;99.90;;;;;;5042493;28;20063;-67
2024/02/20 03:19:34;;;;;;;3.20;1.85;;;10.30;99.90;;;;;;5043424;28;20036;-67
2024/02/20 03:22:00;;;;;;;3.13;2.38;;;10.30;99.90;;;;;;5043262;28;20265;-67
2024/02/20 03:24:25;;;;;;;3.47;2.15;;;10.30;99.90;;;;;;5042184;28;20562;-67
2024/02/20 03:26:51;;;;;;;6.82;2.53;;;10.30;99.90;;;;;;5046731;28;20033;-67
2024/02/20 03:29:17;;;;;;;7.05;3.25;;;10.30;99.90;;;;;;5042939;28;20088;-67
2024/02/20 03:31:43;;;;;;;3.75;2.45;;;10.40;99.90;;;;;;5040571;28;20021;-67
2024/02/20 03:34:09;;;;;;;6.30;3.17;;;10.40;99.90;;;;;;5042189;28;20408;-67
2024/02/20 03:36:35;;;;;;;5.63;2.90;;;10.40;99.90;;;;;;5047084;28;20040;-67
2024/02/20 03:39:02;;;;;;;4.72;2.90;;;10.40;99.90;;;;;;5045155;28;20075;-67
2024/02/20 03:41:28;;;;;;;7.50;3.05;;;10.40;99.90;;;;;;5046030;28;20037;-67
2024/02/20 03:43:54;;;;;;;7.20;3.45;;;10.40;99.90;;;;;;5042104;28;20809;-67
2024/02/20 03:46:20;;;;;;;5.10;3.20;;;10.50;99.90;;;;;;5042990;28;20032;-67
2024/02/20 03:48:45;;;;;;;7.43;3.60;;;10.40;99.90;;;;;;5040907;28;20025;-67
2024/02/20 03:51:11;;;;;;;8.00;3.05;;;10.40;99.90;;;;;;5046266;28;20680;-67
2024/02/20 03:53:37;;;;;;;3.80;2.90;;;10.40;99.90;;;;;;5042843;28;20021;-66
2024/02/20 03:56:03;;;;;;;6.38;2.85;;;10.40;99.90;;;;;;5042560;28;20029;-67
2024/02/20 03:58:29;;;;;;;2.65;2.20;;;10.40;99.90;;;;;;5042853;28;20534;-67
2024/02/20 04:00:55;;;;;;;4.95;2.75;;;10.40;99.90;;;;;;5046604;28;20047;-67
2024/02/20 04:03:21;;;;;;;4.10;2.30;;;10.40;99.90;;;;;;5046469;28;20033;-66
2024/02/20 04:05:47;;;;;;;5.10;2.88;;;10.40;99.90;;;;;;5039776;28;20034;-67
2024/02/20 04:08:15;;;;;;;3.03;2.00;;;10.40;99.90;;;;;;5042733;28;20087;-67
2024/02/20 04:10:41;;;;;;;4.68;2.70;;;10.40;99.90;;;;;;5048710;28;20029;-66
2024/02/20 04:13:07;;;;;;;3.65;2.55;;;10.40;99.90;;;;;;5041807;28;20562;-67
2024/02/20 04:15:33;;;;;;;2.40;2.20;;;10.40;99.90;;;;;;5046690;28;20033;-67
2024/02/20 04:17:59;;;;;;;5.05;2.70;;;10.40;99.90;;;;;;5044584;28;20559;-66
2024/02/20 04:20:25;;;;;;;5.00;2.30;;;10.40;99.90;;;;;;5043155;28;20037;-66
2024/02/20 04:22:51;;;;;;;5.43;2.42;;;10.40;99.90;;;;;;5045669;28;20046;-66
2024/02/20 04:25:17;;;;;;;6.07;3.00;;;10.50;99.90;;;;;;5050298;28;20021;-66
2024/02/20 04:27:44;;;;;;;5.25;2.65;;;10.40;99.90;;;;;;5043628;28;20033;-67
2024/02/20 04:30:11;;;;;;;4.72;2.65;;;10.40;99.90;;;;;;5046091;28;20041;-67
2024/02/20 04:32:37;;;;;;;2.72;2.13;;;10.40;99.90;;;;;;5047253;28;20052;-67
2024/02/20 04:35:03;;;;;;;2.90;2.00;;;10.40;99.90;;;;;;5053274;28;20028;-67
2024/02/20 04:37:29;;;;;;;2.95;1.67;;;10.30;99.90;;;;;;5048881;28;20119;-67
2024/02/20 04:39:55;;;;;;;2.28;1.70;;;10.20;99.90;;;;;;5045887;28;20041;-67
2024/02/20 04:42:22;;;;;;;2.55;1.70;;;10.20;99.90;;;;;;5046992;28;20115;-67
2024/02/20 04:44:52;;;;;;;2.53;1.80;;;10.20;99.90;;;;;;5043489;28;20040;-67
2024/02/20 04:47:17;;;;;;;3.28;1.52;;;10.20;99.90;;;;;;5044658;28;20033;-67
2024/02/20 04:49:43;;;;;;;2.65;1.52;;;10.20;99.90;;;;;;5045012;28;20040;-67
2024/02/20 04:52:09;;;;;;;4.22;1.83;;;10.20;99.90;;;;;;5045593;28;20842;-67
2024/02/20 04:54:35;;;;;;;2.03;1.40;;;10.10;99.90;;;;;;5041397;28;20036;-67
2024/02/20 04:57:01;;;;;;;2.22;1.58;;;10.10;99.90;;;;;;5042089;28;20505;-66
2024/02/20 04:59:27;;;;;;;2.10;1.33;;;9.90;99.90;;;;;;5050337;28;20033;-67
2024/02/20 05:01:53;;;;;;;2.78;0.98;;;9.80;99.90;;;;;;5045141;28;20522;-67
2024/02/20 05:04:19;;;;;;;3.05;1.08;;;9.80;99.90;;;;;;5046393;28;20026;-67
2024/02/20 05:06:45;;;;;;;1.23;0.75;;;9.80;99.90;;;;;;5043855;28;20488;-67
2024/02/20 05:09:11;;;;;;;4.22;0.82;;;9.80;99.90;;;;;;5045873;28;20112;-67
2024/02/20 05:11:37;;;;;;;0.70;0.70;;;9.80;99.90;;;;;;5049608;28;20031;-67
2024/02/20 05:14:03;;;;;;;1.90;0.93;;;9.80;99.90;;;;;;5046566;28;20033;-67
2024/02/20 05:16:29;;;;;;;0.82;0.68;;;9.80;99.90;;;;;;5045315;28;20035;-67
2024/02/20 05:18:55;;;;;;;2.58;0.70;;;9.80;99.90;;;;;;5051124;28;20132;-67
2024/02/20 05:21:21;;;;;;;2.22;0.90;;;9.80;99.90;;;;;;5043717;28;20040;-67
2024/02/20 05:23:46;;;;;;;0.43;0.43;;;9.80;99.90;;;;;;5051492;28;20137;-67
2024/02/20 05:26:12;;;;;;;4.30;0.90;;;9.80;99.90;;;;;;5045802;28;20068;-67
2024/02/20 05:28:38;;;;;;;0.88;0.38;;;9.70;99.90;;;;;;5046614;28;20052;-67
2024/02/20 05:31:28;;;;;;;0.88;0.40;;;9.70;99.90;;;;;;5048920;28;20487;-67
2024/02/20 05:33:59;;;;;;;0.98;0.40;;;9.70;99.90;;;;;;5050795;28;20025;-67
2024/02/20 05:36:33;;;;;;;1.25;0.50;;;9.60;99.90;;;;;;5047293;28;20037;-67
2024/02/20 05:39:00;;;;;;;1.08;0.28;;;9.60;99.90;;;;;;5044014;28;20165;-68
2024/02/20 05:41:28;;;;;;;1.45;0.52;;;9.60;99.90;;;;;;5047050;28;20021;-67
2024/02/20 05:43:57;;;;;;;4.88;0.30;;;9.60;99.90;;;;;;5051003;28;20115;-67
2024/02/20 05:46:27;;;;;;;0.45;0.38;;;9.60;99.90;;;;;;5049506;28;20028;-67
2024/02/20 05:48:54;;;;;;;0.60;0.47;;;9.50;99.90;;;;;;5043959;28;20028;-67
2024/02/20 05:51:20;;;;;;;0.35;0.20;;;9.60;99.90;;;;;;5044953;28;20393;-67
2024/02/20 05:53:46;;;;;;;1.30;0.40;;;9.60;99.90;;;;;;5048975;28;20025;-67
2024/02/20 05:56:12;;;;;;;5.57;0.43;;;9.60;99.90;;;;;;5042735;28;20035;-67
2024/02/20 05:58:38;;;;;;;1.52;0.40;;;9.60;99.90;;;;;;5043978;28;20025;-67
2024/02/20 06:01:08;;;;;;;2.25;0.50;;;9.60;99.90;;;;;;5043231;28;20053;-67
2024/02/20 06:03:38;;;;;;;0.85;0.50;;;9.50;99.90;;;;;;5044733;28;20811;-68
2024/02/20 06:06:08;;;;;;;0.25;0.25;;;9.50;99.90;;;;;;5044374;28;20038;-67
2024/02/20 06:08:35;;;;;;;2.17;0.63;;;9.50;99.90;;;;;;5045583;28;20034;-67
2024/02/20 06:11:01;;;;;;;1.23;0.30;;;9.50;99.90;;;;;;5047067;28;20399;-67
2024/02/20 06:13:27;;;;;;;0.32;0.32;;;9.60;99.90;;;;;;5044448;28;20039;-67
2024/02/20 06:15:53;;;;;;;0.20;0.20;;;9.50;99.90;;;;;;5046379;28;20037;-67
2024/02/20 06:18:19;;;;;;;1.50;0.30;;;9.60;99.90;;;;;;5050624;28;20036;-67
2024/02/20 06:20:46;;;;;;;0.35;0.30;;;9.50;99.90;;;;;;5046602;28;20048;-68
2024/02/20 06:23:15;;;;;;;0.55;0.20;;;9.50;99.90;;;;;;5043868;28;20036;-67
2024/02/20 06:25:43;;;;;;;0.47;0.28;;;9.50;99.90;;;;;;5044118;28;20029;-67
2024/02/20 06:28:09;;;;;;;0.68;0.25;;;9.50;99.90;;;;;;5051555;28;20048;-67
2024/02/20 06:30:35;;;;;;;4.07;0.38;;;9.50;99.90;;;;;;5048772;28;20041;-67
2024/02/20 06:33:02;;;;;;;0.68;0.30;;;9.60;99.90;;;;;;5051241;28;20047;-67
2024/02/20 06:35:28;;;;;;;1.38;0.50;;;9.60;99.90;;;;;;5044654;28;20032;-67
2024/02/20 06:37:54;;;;;;;0.40;0.40;;;9.60;99.90;;;;;;5046013;28;20450;-67
2024/02/20 06:40:20;;;;;;;1.90;0.60;;;9.60;99.90;;;;;;5045972;28;20043;-67
2024/02/20 06:42:45;;;;;;;0.30;0.30;;;9.60;99.90;;;;;;5049108;28;20184;-67
2024/02/20 06:45:11;;;;;;;3.40;0.38;;;9.60;99.90;;;;;;5042686;28;20031;-67
2024/02/20 06:47:38;;;;;;;1.20;0.47;;;9.70;99.90;;;;;;5041717;28;20066;-67
2024/02/20 06:50:08;;;;;;;3.35;0.60;;;9.70;99.90;;;;;;5048783;28;20083;-66
2024/02/20 06:52:38;;;;;;;0.75;0.40;;;9.70;99.90;;;;;;5047600;28;20080;-67
2024/02/20 06:55:08;;;;;;;0.90;0.40;;;9.70;99.90;;;;;;5047323;28;20496;-67
2024/02/20 06:57:35;;;;;;;1.83;0.40;;;9.70;99.90;;;;;;5045192;28;20040;-67
2024/02/20 07:00:04;;;;;;;0.65;0.40;;;9.70;99.90;;;;;;5042368;28;20036;-67
2024/02/20 07:02:33;;;;;;;2.72;0.63;;;9.70;99.90;;;;;;5042025;28;20029;-67
2024/02/20 07:04:59;;;;;;;2.15;0.68;;;9.70;99.90;;;;;;5064117;28;20578;-67
2024/02/20 07:07:24;;;;;;;3.50;0.60;;;9.80;99.90;;;;;;5047979;28;20041;-67
2024/02/20 07:09:50;;;;;;;2.80;0.63;;;9.80;99.90;;;;;;5043328;28;20025;-67
2024/02/20 07:12:17;;;;;;;2.15;0.65;;;9.70;99.90;;;;;;5044894;28;20106;-67
2024/02/20 07:14:43;;;;;;;0.85;0.43;;;9.60;99.90;;;;;;5038861;28;20029;-67
2024/02/20 07:17:10;;;;;;;0.82;0.70;;;9.60;99.90;;;;;;5043219;28;20604;-68
2024/02/20 07:19:36;;;;;;;1.15;0.57;;;9.60;99.90;;;;;;5047221;28;20033;-68
2024/02/20 07:22:03;;;;;;;2.53;0.73;;;9.70;99.90;;;;;;5040622;28;20526;-68
2024/02/20 07:24:29;;;;;;;0.70;0.60;;;9.70;99.90;;;;;;5050891;28;20074;-67
2024/02/20 07:26:55;;;;;;;1.13;0.60;;;9.80;99.90;;;;;;5041192;28;20069;-68
2024/02/20 07:29:20;;;;;;;2.55;0.80;;;9.80;99.90;;;;;;5029059;28;20039;-67
2024/02/20 07:31:46;;;;;;;1.58;0.70;;;9.80;99.90;;;;;;5036557;28;20037;-67
2024/02/20 07:34:12;;;;;;;4.55;0.88;;;9.80;99.90;;;;;;5062850;28;20029;-67
2024/02/20 07:36:38;;;;;;;2.50;1.17;;;9.60;99.90;;;;;;5048753;28;20111;-67
2024/02/20 07:39:04;;;;;;;5.97;0.90;;;9.60;99.90;;;;;;5050777;28;20178;-68
2024/02/20 07:41:30;;;;;;;3.25;1.52;;;9.60;99.90;;;;;;5049669;28;20024;-67
2024/02/20 07:43:56;;;;;;;1.88;0.90;;;9.60;99.90;;;;;;5045246;28;20020;-67
2024/02/20 07:46:22;;;;;;;4.03;1.10;;;9.60;99.90;;;;;;5045122;28;20130;-67
2024/02/20 07:48:48;;;;;;;1.48;0.63;;;9.70;99.90;;;;;;5044569;28;20575;-67
2024/02/20 07:51:15;;;;;;;3.75;0.85;;;9.80;99.90;;;;;;5043400;28;20029;-67
2024/02/20 07:53:43;;;;;;;7.90;3.13;;;9.80;99.90;;;;;;5036475;28;20071;-66
2024/02/20 07:56:09;;;;;;;6.50;3.55;;;9.80;99.90;;;;;;5041328;28;20033;-66
2024/02/20 07:58:38;;;;;;;2.53;1.20;;;9.90;99.90;;;;;;5052687;28;20033;-66
2024/02/20 08:01:10;;;;;;;5.03;1.95;;;9.90;99.90;;;;;;5050227;28;20041;-66
2024/02/20 08:03:36;;;;;;;11.38;3.88;;;9.90;99.90;;;;;;5050848;28;20034;-67
2024/02/20 08:06:01;;;;;;;9.23;2.17;;;9.90;99.90;;;;;;5053058;28;20551;-67
2024/02/20 08:08:27;;;;;;;7.55;2.53;;;9.80;99.90;;;;;;5047264;28;20455;-70
2024/02/20 08:10:54;;;;;;;9.90;2.03;;;9.80;99.90;;;;;;5051527;28;20547;-70
2024/02/20 08:13:21;;;;;;;7.30;2.05;;;9.90;99.90;;;;;;5042250;28;20064;-68
2024/02/20 08:15:47;;;;;;;8.60;1.88;;;9.90;99.90;;;;;;5050786;28;20500;-70
2024/02/20 08:18:13;;;;;;;4.07;1.33;;;9.90;99.90;;;;;;5044886;28;20748;-68
2024/02/20 08:20:39;;;;;;;5.25;1.20;;;9.90;99.90;;;;;;5044975;28;20021;-68
2024/02/20 08:23:05;;;;;;;9.38;1.83;;;9.90;99.90;;;;;;5052337;28;20467;-68
2024/02/20 08:25:31;;;;;;;7.18;2.15;;;10.00;99.90;;;;;;5049884;28;20029;-68
2024/02/20 08:27:57;;;;;;;5.90;1.55;;;10.00;99.90;;;;;;5074264;28;20149;-67
2024/02/20 08:30:25;;;;;;;8.93;3.40;;;10.00;99.90;;;;;;5045703;28;20029;-67
2024/02/20 08:32:51;;;;;;;9.23;2.80;;;10.10;99.90;;;;;;5049856;28;20033;-67
2024/02/20 08:35:19;;;;;;;9.32;2.10;;;10.10;99.90;;;;;;5045845;28;20044;-68
2024/02/20 08:37:45;;;;;;;9.45;2.22;;;10.10;99.90;;;;;;5049972;28;20037;-67
2024/02/20 08:40:12;;;;;;;14.43;2.47;;;10.10;99.90;;;;;;5047045;28;20044;-66
2024/02/20 08:42:38;;;;;;;12.20;2.45;;;10.10;99.90;;;;;;5043435;28;20107;-67
2024/02/20 08:45:05;;;;;;;9.95;3.30;;;10.20;99.90;;;;;;5049993;28;20505;-69
2024/02/20 08:47:31;;;;;;;7.47;1.92;;;10.20;99.90;;;;;;5050545;28;20484;-67
2024/02/20 08:49:57;;;;;;;10.30;2.72;;;10.20;99.90;;;;;;5047116;28;20033;-67
2024/02/20 08:52:23;;;;;;;7.78;2.05;;;10.30;99.90;;;;;;5045486;28;20673;-67
2024/02/20 08:54:49;;;;;;;8.68;2.67;;;10.40;99.90;;;;;;5044718;28;20029;-68
2024/02/20 08:57:15;;;;;;;8.60;2.55;;;10.70;99.90;;;;;;5049525;28;20556;-67
2024/02/20 08:59:41;;;;;;;17.20;2.65;;;10.90;99.90;;;;;;5048739;28;20127;-67
2024/02/20 09:02:07;;;;;;;12.25;2.13;;;11.00;99.90;;;;;;5049726;28;20075;-67
2024/02/20 09:04:33;;;;;;;11.00;1.55;;;11.00;99.90;;;;;;5044759;28;20463;-67
2024/02/20 09:06:59;;;;;;;4.32;1.60;;;11.00;99.90;;;;;;5045997;28;20593;-67
2024/02/20 09:09:25;;;;;;;8.05;1.90;;;11.00;99.90;;;;;;5048873;28;20082;-66
2024/02/20 09:11:51;;;;;;;16.75;2.10;;;10.90;99.90;;;;;;5044730;28;20569;-66
2024/02/20 09:14:21;;;;;;;11.05;2.85;;;10.90;99.90;;;;;;5050308;28;20025;-66
2024/02/20 09:16:47;;;;;;;12.35;2.53;;;10.70;99.90;;;;;;5045968;28;20030;-66
2024/02/20 09:19:15;;;;;;;12.40;2.22;;;10.70;99.90;;;;;;5046001;28;20021;-66
2024/02/20 09:21:41;;;;;;;12.18;2.45;;;10.50;99.90;;;;;;5048005;28;20496;-61
2024/02/20 09:24:10;;;;;;;8.95;2.33;;;10.40;99.90;;;;;;5049062;28;20024;-66
2024/02/20 09:26:36;;;;;;;9.27;2.80;;;10.30;99.90;;;;;;5047604;28;20114;-68
2024/02/20 09:29:02;;;;;;;16.02;3.55;;;10.30;99.90;;;;;;5048084;28;20027;-68
2024/02/20 09:31:29;;;;;;;15.18;4.65;;;10.30;99.90;;;;;;5049801;28;20025;-72
2024/02/20 09:33:55;;;;;;;17.17;4.85;;;10.20;99.90;;;;;;5052071;28;20055;-73
2024/02/20 09:36:21;;;;;;;14.02;5.70;;;10.20;99.90;;;;;;5049216;28;20526;-73
2024/02/20 09:38:47;;;;;;;15.60;5.55;;;10.20;99.90;;;;;;5046073;28;20036;-73
2024/02/20 09:41:25;;;;;;;18.20;3.15;;;10.20;99.90;;;;;;5048751;28;20037;-74
2024/02/20 09:43:52;;;;;;;15.18;3.55;;;10.20;99.90;;;;;;5050034;28;20029;-74
2024/02/20 09:46:21;;;;;;;11.13;2.03;;;10.30;99.90;;;;;;5048805;28;20097;-74
2024/02/20 09:48:49;;;;;;;17.15;3.78;;;10.50;99.90;;;;;;5052789;28;20026;-74
2024/02/20 09:51:19;;;;;;;15.57;4.35;;;10.90;99.90;;;;;;5045943;28;20040;-73
2024/02/20 09:53:44;;;;;;;18.77;3.70;;;11.30;99.90;;;;;;5051439;28;20032;-74
2024/02/20 09:56:15;;;;;;;14.48;3.47;;;11.60;99.90;;;;;;5052739;28;20084;-75
2024/02/20 09:58:41;;;;;;;14.98;3.60;;;11.50;99.90;;;;;;5049670;28;20830;-73
2024/02/20 10:01:08;;;;;;;15.27;4.68;;;11.60;99.90;;;;;;5047241;28;20059;-73
2024/02/20 10:03:38;;;;;;;23.17;4.75;;;11.50;99.90;;;;;;5045190;28;20511;-73
2024/02/20 10:06:07;;;;;;;21.08;3.55;;;11.50;99.90;;;;;;5050024;28;20029;-73
2024/02/20 10:08:33;;;;;;;14.93;4.80;;;11.50;99.90;;;;;;5050041;28;20091;-75
2024/02/20 10:11:00;;;;;;;16.73;2.92;;;11.40;99.90;;;;;;5049620;28;20025;-75
2024/02/20 10:13:26;;;;;;;19.63;3.95;;;11.40;99.90;;;;;;5044245;28;20056;-73
2024/02/20 10:16:04;;;;;;;11.60;3.80;;;11.40;99.90;;;;;;5046212;28;20572;-74
2024/02/20 10:18:30;;;;;;;29.35;8.85;;;11.40;99.90;;;;;;5044570;28;20051;-74
2024/02/20 10:21:09;;;;;;;19.63;5.93;;;11.50;99.90;;;;;;5049280;28;20798;-73
2024/02/20 10:23:35;;;;;;;18.45;2.65;;;11.50;99.90;;;;;;5048280;28;20059;-74
2024/02/20 10:26:01;;;;;;;18.65;4.90;;;11.40;99.90;;;;;;5046812;28;20154;-74
2024/02/20 10:28:28;;;;;;;15.13;3.65;;;11.50;99.90;;;;;;5050019;28;20770;-74
2024/02/20 10:30:55;;;;;;;14.73;4.30;;;11.60;99.90;;;;;;5048443;28;20051;-74
2024/02/20 10:33:22;;;;;;;19.33;5.15;;;11.70;99.90;;;;;;5033493;28;21170;-73
2024/02/20 10:35:48;;;;;;;16.40;3.15;;;11.70;99.90;;;;;;5037250;28;20036;-73
2024/02/20 10:38:18;;;;;;;15.95;3.63;;;11.80;99.90;;;;;;5046909;28;20063;-73
2024/02/20 10:40:45;;;;;;;14.30;3.47;;;11.90;99.90;;;;;;5049397;28;20554;-73
2024/02/20 10:43:12;;;;;;;11.43;3.17;;;11.90;99.90;;;;;;5049209;28;20048;-72
2024/02/20 10:45:39;;;;;;;17.42;3.38;;;12.00;99.90;;;;;;5050645;28;20736;-73
2024/02/20 10:48:10;;;;;;;16.08;2.63;;;12.10;99.90;;;;;;5044266;28;20087;-74
2024/02/20 10:50:36;;;;;;;12.80;2.08;;;12.20;99.90;;;;;;5045600;28;20530;-74
2024/02/20 10:53:02;;;;;;;16.10;2.08;;;12.50;99.90;;;;;;5046630;28;20036;-74
2024/02/20 10:55:29;;;;;;;14.98;1.77;;;12.70;99.90;;;;;;5047539;28;20024;-74
2024/02/20 10:58:00;;;;;;;9.48;1.75;;;12.80;99.90;;;;;;5049361;28;20101;-74
2024/02/20 11:00:27;;;;;;;15.27;2.95;;;12.80;99.90;;;;;;5043416;28;20025;-74
2024/02/20 11:02:54;;;;;;;11.50;2.05;;;12.80;99.90;;;;;;5045190;28;20044;-74
2024/02/20 11:05:20;;;;;;;13.45;2.47;;;12.70;99.90;;;;;;5048838;28;20119;-74
2024/02/20 11:07:46;;;;;;;13.20;1.73;;;12.70;99.90;;;;;;5047398;28;20020;-74
2024/02/20 11:10:17;;;;;;;14.50;3.13;;;12.70;99.90;;;;;;5042556;28;20159;-75
2024/02/20 11:12:44;;;;;;;13.90;2.58;;;12.60;99.90;;;;;;5042028;28;20499;-73
2024/02/20 11:15:21;;;;;;;14.80;2.38;;;12.50;99.90;;;;;;5046020;28;20466;-74
2024/02/20 11:17:48;;;;;;;18.38;2.10;;;12.40;99.90;;;;;;5047846;28;20037;-72
2024/02/20 11:20:23;;;;;;;11.75;2.28;;;12.20;99.90;;;;;;5047743;28;20123;-73
2024/02/20 11:22:50;;;;;;;13.13;2.30;;;12.10;99.90;;;;;;5043931;28;20485;-72
2024/02/20 11:25:20;;;;;;;14.70;2.00;;;12.00;99.90;;;;;;5044255;28;20110;-74
2024/02/20 11:27:47;;;;;;;13.98;2.47;;;11.90;99.90;;;;;;5046222;28;20032;-74
2024/02/20 11:30:24;;;;;;;14.10;1.77;;;12.00;99.90;;;;;;5042573;28;20025;-73
2024/02/20 11:32:52;;;;;;;11.20;2.03;;;12.00;99.90;;;;;;5041646;28;20033;-72
2024/02/20 11:35:32;;;;;;;11.55;2.08;;;12.00;99.90;;;;;;5047169;28;20052;-73
2024/02/20 11:38:03;;;;;;;11.80;2.00;;;12.00;99.90;;;;;;5043127;28;20029;-73
2024/02/20 11:40:31;;;;;;;10.18;1.58;;;12.10;99.90;;;;;;5046006;28;20033;-70
2024/02/20 11:43:04;;;;;;;11.98;1.88;;;12.10;99.90;;;;;;5069713;28;20052;-69
2024/02/20 11:45:33;;;;;;;11.77;1.80;;;12.00;99.90;;;;;;5043453;28;20056;-74
2024/02/20 11:48:19;;;;;;;5.43;1.63;;;12.10;99.90;;;;;;5043890;28;20021;-73
2024/02/20 11:50:46;;;;;;;15.82;2.20;;;12.10;99.90;;;;;;5041218;28;21448;-75
2024/02/20 11:53:17;;;;;;;16.90;3.00;;;12.20;99.90;;;;;;5045353;28;20063;-70
2024/02/20 11:55:44;;;;;;;13.95;1.98;;;12.30;99.90;;;;;;5045316;28;20048;-72
2024/02/20 11:58:16;;;;;;;8.52;1.77;;;12.40;99.90;;;;;;5041854;28;20029;-74
2024/02/20 12:00:43;;;;;;;16.75;1.73;;;12.50;99.90;;;;;;5048634;28;20101;-72
2024/02/20 12:03:09;;;;;;;17.40;2.75;;;12.50;99.90;;;;;;5052510;28;20036;-72
2024/02/20 12:05:41;;;;;;;14.85;2.05;;;12.40;99.90;;;;;;5054095;28;20554;-70
2024/02/20 12:08:17;;;;;;;18.63;3.05;;;12.30;99.90;;;;;;5047261;28;20036;-69
2024/02/20 12:10:46;;;;;;;13.65;1.75;;;12.20;99.90;;;;;;5043579;28;20542;-69
2024/02/20 12:13:19;;;;;;;10.27;2.50;;;12.10;99.90;;;;;;5043894;28;20054;-70
2024/02/20 12:15:50;;;;;;;14.18;3.22;;;12.20;99.90;;;;;;5048847;28;20063;-73
2024/02/20 12:18:28;;;;;;;15.75;3.83;;;12.20;99.90;;;;;;5066994;28;20036;-72
2024/02/20 12:21:10;;;;;;;24.42;7.18;;;12.20;99.90;;;;;;5041904;28;20032;-72
2024/02/20 12:23:40;;;;;;;14.35;5.13;;;12.20;99.90;;;;;;5039547;28;20029;-71
2024/02/20 12:26:08;;;;;;;11.10;3.30;;;12.20;99.90;;;;;;5045813;28;20040;-72
2024/02/20 12:28:35;;;;;;;17.92;2.97;;;12.20;99.90;;;;;;5049235;28;20024;-72
2024/02/20 12:31:01;;;;;;;9.63;2.72;;;12.20;99.90;;;;;;5043181;28;20107;-71
2024/02/20 12:33:28;;;;;;;13.02;2.08;;;12.30;99.90;;;;;;5040515;28;20801;-72
2024/02/20 12:35:57;;;;;;;14.40;2.33;;;12.40;99.90;;;;;;5046407;28;20029;-73
2024/02/20 12:38:24;;;;;;;17.85;3.10;;;12.70;99.90;;;;;;5040181;28;20130;-73
2024/02/20 12:40:50;;;;;;;20.25;4.15;;;13.00;99.90;;;;;;5052159;28;20424;-71
2024/02/20 12:43:16;;;;;;;15.00;3.20;;;13.20;99.90;;;;;;5052137;28;20040;-74
2024/02/20 12:45:42;;;;;;;22.55;3.63;;;13.50;99.90;;;;;;5049695;28;20082;-70